Time;durP1;ratioP1;P1;durP2;ratioP2;P2;SDS_P1;SDS_P2;PMS_P1;PMS_P2;Temp;Humidity;BMP_temperature;BMP_pressure;BME280_temperature;BME280_humidity;BME280_pressure;Samples;Min_cycle;Max_cycle;Signal;HPM_P1;HPM_P2
2023/07/17 00:00:06;;;;;;;3.63;2.57;;;22.90;56.30;;;;;;6113165;23;20436;-82
2023/07/17 00:17:38;;;;;;;3.10;2.33;;;22.10;58.30;;;;;;6078506;23;20502;-83
2023/07/17 00:20:45;;;;;;;3.67;2.57;;;22.10;58.50;;;;;;6144184;23;20427;-82
2023/07/17 00:23:49;;;;;;;5.40;2.70;;;22.10;58.60;;;;;;6136267;23;20402;-83
2023/07/17 00:26:34;;;;;;;4.17;2.67;;;22.10;58.80;;;;;;6139456;23;20447;-82
2023/07/17 00:32:05;;;;;;;6.00;2.70;;;22.10;59.70;;;;;;6264685;22;20451;-83
2023/07/17 00:34:55;;;;;;;3.80;1.97;;;22.10;60.10;;;;;;6265163;22;20956;-82
2023/07/17 00:38:10;;;;;;;4.27;2.60;;;22.00;60.70;;;;;;6238098;22;20486;-83
2023/07/17 00:40:54;;;;;;;3.37;2.57;;;22.10;61.60;;;;;;6204140;23;20412;-81
2023/07/17 00:43:40;;;;;;;3.83;2.90;;;22.00;61.90;;;;;;6207894;23;20415;-82
2023/07/17 00:46:24;;;;;;;3.20;2.90;;;22.00;62.50;;;;;;6200099;23;20504;-82
2023/07/17 00:49:25;;;;;;;3.50;3.20;;;22.00;62.40;;;;;;6215157;23;20442;-82
2023/07/17 00:52:25;;;;;;;5.73;2.67;;;22.00;62.90;;;;;;6230967;23;20396;-83
2023/07/17 00:55:26;;;;;;;5.60;2.70;;;22.00;63.30;;;;;;6221170;23;20458;-82
2023/07/17 01:02:12;;;;;;;3.53;2.50;;;21.90;66.30;;;;;;6244312;23;20411;-83
2023/07/17 01:05:39;;;;;;;;;;;;;;;;;;;;;
2023/07/17 01:12:27;;;;;;;3.20;2.67;;;21.60;70.10;;;;;;6227151;23;20404;-82
2023/07/17 01:15:03;;;;;;;3.10;2.20;;;21.60;71.20;;;;;;6242997;23;20404;-83
2023/07/17 01:17:50;;;;;;;2.77;2.03;;;21.50;72.30;;;;;;6225013;23;20415;-82
2023/07/17 01:24:16;;;;;;;3.10;2.03;;;21.30;74.10;;;;;;6252242;23;20397;-84
2023/07/17 01:27:27;;;;;;;2.80;2.03;;;21.20;75.10;;;;;;6226092;23;20435;-83
2023/07/17 01:30:24;;;;;;;1.70;1.50;;;21.30;74.90;;;;;;6211139;23;20457;-84
2023/07/17 01:33:14;;;;;;;5.53;1.83;;;21.20;74.90;;;;;;6221556;23;20405;-82
2023/07/17 01:36:15;;;;;;;2.00;1.70;;;21.20;75.00;;;;;;6219231;23;20401;-82
2023/07/17 01:39:33;;;;;;;2.90;1.83;;;21.10;75.30;;;;;;6218006;23;20417;-82
2023/07/17 01:42:27;;;;;;;3.47;2.00;;;21.10;76.00;;;;;;6219388;23;20406;-81
2023/07/17 01:45:21;;;;;;;1.70;1.60;;;21.10;76.10;;;;;;6222041;23;20583;-84
2023/07/17 01:47:57;;;;;;;4.07;2.43;;;21.00;76.10;;;;;;6210147;23;20409;-82
2023/07/17 01:50:50;;;;;;;2.30;1.93;;;21.00;76.70;;;;;;6132888;23;20413;-82
2023/07/17 01:53:48;;;;;;;2.90;1.80;;;21.00;77.20;;;;;;6208440;23;20416;-82
2023/07/17 01:56:56;;;;;;;3.47;1.87;;;20.90;77.40;;;;;;6203267;23;20557;-82
2023/07/17 02:02:33;;;;;;;4.07;2.00;;;20.80;78.40;;;;;;6242330;22;20560;-84
2023/07/17 02:05:14;;;;;;;2.50;2.00;;;20.80;78.90;;;;;;6241506;23;20446;-82
2023/07/17 02:10:49;;;;;;;2.20;1.70;;;20.90;78.80;;;;;;6239527;22;20452;-82
2023/07/17 02:13:34;;;;;;;1.50;1.30;;;20.80;78.70;;;;;;6240537;23;20458;-82
2023/07/17 02:16:20;;;;;;;3.73;1.80;;;20.80;79.00;;;;;;6213704;23;20422;-82
2023/07/17 02:19:28;;;;;;;3.80;1.93;;;20.80;79.00;;;;;;6211573;23;20422;-82
2023/07/17 02:22:37;;;;;;;2.90;1.60;;;20.80;79.00;;;;;;6206730;23;20490;-83
2023/07/17 02:25:48;;;;;;;2.00;1.37;;;20.80;79.10;;;;;;6230844;22;20422;-82
2023/07/17 02:28:42;;;;;;;3.07;2.10;;;20.90;79.30;;;;;;6179793;23;20426;-82
2023/07/17 02:31:47;;;;;;;2.40;1.83;;;20.80;79.10;;;;;;6186618;23;20480;-83
2023/07/17 02:38:20;;;;;;;1.90;1.50;;;20.80;79.40;;;;;;6042757;23;20512;-81
2023/07/17 02:42:18;;;;;;;3.30;1.87;;;20.80;79.70;;;;;;6116327;23;20396;-83
2023/07/17 02:45:08;;;;;;;2.77;1.97;;;20.80;79.60;;;;;;6015049;23;20473;-83
2023/07/17 02:48:16;;;;;;;1.80;1.50;;;20.80;80.20;;;;;;6038193;23;20481;-82
2023/07/17 02:51:21;;;;;;;2.50;1.70;;;20.70;80.20;;;;;;6039694;23;20562;-83
2023/07/17 02:54:18;;;;;;;3.43;1.50;;;20.70;80.30;;;;;;6045397;23;20840;-85
2023/07/17 03:00:31;;;;;;;2.50;1.73;;;20.70;81.90;;;;;;6193377;23;20424;-81
2023/07/17 03:03:23;;;;;;;2.07;1.50;;;20.80;81.10;;;;;;6184801;23;20427;-83
2023/07/17 03:10:05;;;;;;;1.73;1.63;;;21.00;80.20;;;;;;6250130;22;20419;-82
2023/07/17 03:13:20;;;;;;;2.67;1.80;;;20.80;81.30;;;;;;6229084;23;20432;-84
2023/07/17 03:15:59;;;;;;;2.13;1.60;;;20.80;82.10;;;;;;6221365;23;20615;-83
2023/07/17 03:19:16;;;;;;;4.57;1.80;;;20.60;81.70;;;;;;6223245;23;20443;-84
2023/07/17 03:22:56;;;;;;;;;;;;;;;;;;;;;
2023/07/17 03:30:15;;;;;;;2.47;1.60;;;21.10;80.70;;;;;;6037723;23;20599;-84
2023/07/17 03:33:22;;;;;;;4.77;2.50;;;20.80;81.90;;;;;;6102590;23;20891;-82
2023/07/17 03:36:47;;;;;;;2.40;1.80;;;20.70;82.70;;;;;;6118585;23;20410;-80
2023/07/17 03:39:38;;;;;;;;;;;;;;;;;;;;;
2023/07/17 03:42:26;;;;;;;;;;;;;;;;;;;;;
2023/07/17 03:45:20;;;;;;;1.93;1.60;;;20.60;84.20;;;;;;6150991;23;20426;-84
2023/07/17 03:48:17;;;;;;;2.13;1.60;;;20.50;85.00;;;;;;6126345;23;21318;-83
2023/07/17 03:51:19;;;;;;;1.83;1.40;;;20.50;84.60;;;;;;6093915;23;20483;-83
2023/07/17 03:54:21;;;;;;;2.70;1.93;;;20.40;85.40;;;;;;6116832;23;20442;-84
2023/07/17 03:57:10;;;;;;;1.87;1.67;;;20.40;85.60;;;;;;6124990;23;20429;-84
2023/07/17 04:00:20;;;;;;;3.00;2.30;;;20.30;85.50;;;;;;6132518;23;20462;-83
2023/07/17 04:03:22;;;;;;;3.03;2.03;;;20.20;85.30;;;;;;6130124;23;20411;-83
2023/07/17 04:10:23;;;;;;;4.10;1.90;;;20.60;84.50;;;;;;6264407;22;20416;-81
2023/07/17 04:13:23;;;;;;;;;;;;;;;;;;;;;
2023/07/17 04:17:00;;;;;;;1.93;1.80;;;20.60;84.50;;;;;;6143908;23;20396;-81
2023/07/17 04:23:19;;;;;;;3.07;1.80;;;20.80;84.10;;;;;;6123944;23;20412;-83
2023/07/17 04:26:11;;;;;;;;;;;;;;;;;;;;;
2023/07/17 04:32:18;;;;;;;4.60;2.07;;;20.40;85.50;;;;;;6242505;23;20481;-82
2023/07/17 04:35:02;;;;;;;2.90;2.30;;;20.30;86.80;;;;;;6214713;23;20514;-81
2023/07/17 04:38:42;;;;;;;;;;;;;;;;;;;;;
2023/07/17 04:42:01;;;;;;;2.50;1.50;;;20.30;85.90;;;;;;6251384;23;20467;-82
2023/07/17 04:50:41;;;;;;;2.87;2.10;;;20.10;85.60;;;;;;6248112;23;20511;-82
2023/07/17 04:53:30;;;;;;;1.90;1.80;;;20.10;85.00;;;;;;6230408;23;20400;-82
2023/07/17 04:56:27;;;;;;;2.97;2.00;;;20.10;84.80;;;;;;6232486;23;20448;-83
2023/07/17 05:02:50;;;;;;;3.63;2.07;;;20.20;83.80;;;;;;6254927;23;20448;-82
2023/07/17 05:06:00;;;;;;;3.60;1.93;;;20.30;83.70;;;;;;6225787;23;20423;-80
2023/07/17 05:09:05;;;;;;;3.30;2.10;;;20.30;83.50;;;;;;6225758;23;20432;-84
2023/07/17 05:12:32;;;;;;;3.63;1.60;;;20.30;83.60;;;;;;6226036;23;20466;-86
2023/07/17 05:16:06;;;;;;;1.87;1.57;;;20.30;83.80;;;;;;6224158;23;20421;-82
2023/07/17 05:19:35;;;;;;;;;;;;;;;;;;;;;
2023/07/17 05:25:22;;;;;;;4.10;2.07;;;20.40;83.60;;;;;;6204158;23;20472;-83
2023/07/17 05:31:20;;;;;;;1.90;1.60;;;20.50;83.40;;;;;;6184197;23;20414;-83
2023/07/17 05:34:11;;;;;;;3.33;1.93;;;20.80;83.10;;;;;;6133310;23;20402;-83
2023/07/17 05:37:01;;;;;;;2.20;2.00;;;20.90;82.00;;;;;;6160538;23;20452;-82
2023/07/17 05:39:35;;;;;;;3.30;1.87;;;20.70;82.20;;;;;;6158551;23;20422;-82
2023/07/17 05:42:44;;;;;;;;;;;;;;;;;;;;;
2023/07/17 05:45:43;;;;;;;2.80;1.50;;;20.50;83.00;;;;;;6177009;23;20694;-83
2023/07/17 05:48:50;;;;;;;3.10;2.07;;;20.50;82.90;;;;;;6160011;23;20525;-82
2023/07/17 05:51:42;;;;;;;4.00;1.67;;;20.50;82.80;;;;;;6143414;23;20406;-85
2023/07/17 05:54:51;;;;;;;2.63;1.70;;;20.60;82.70;;;;;;6156148;23;20766;-83
2023/07/17 05:58:01;;;;;;;2.37;2.17;;;20.70;81.30;;;;;;6154765;23;20420;-84
2023/07/17 06:01:20;;;;;;;4.00;1.83;;;20.70;82.20;;;;;;6200970;23;20448;-82
2023/07/17 06:04:54;;;;;;;2.80;1.60;;;20.60;82.40;;;;;;6150739;23;20410;-81
2023/07/17 06:08:17;;;;;;;2.33;1.70;;;20.70;82.60;;;;;;6200586;23;20440;-84
2023/07/17 06:18:29;;;;;;;4.93;2.40;;;20.80;80.70;;;;;;6180375;23;20418;-83
2023/07/17 06:24:53;;;;;;;5.27;2.10;;;20.60;80.90;;;;;;6159664;23;20413;-84
2023/07/17 06:28:12;;;;;;;2.77;2.57;;;20.70;80.70;;;;;;6182135;23;20445;-83
2023/07/17 06:31:02;;;;;;;3.67;2.13;;;20.80;80.80;;;;;;6147257;23;20442;-84
2023/07/17 06:34:14;;;;;;;4.37;2.50;;;20.90;80.70;;;;;;6160820;23;21053;-84
2023/07/17 06:37:08;;;;;;;5.60;2.20;;;21.00;80.30;;;;;;6180703;23;20422;-83
2023/07/17 06:39:58;;;;;;;3.93;1.80;;;21.10;80.50;;;;;;6154427;23;20464;-83
2023/07/17 06:42:40;;;;;;;2.80;1.70;;;20.90;80.80;;;;;;6153778;23;20497;-83
2023/07/17 06:45:41;;;;;;;;;;;;;;;;;;;;;
2023/07/17 06:48:44;;;;;;;2.73;1.93;;;21.40;79.10;;;;;;6191166;23;20468;-82
2023/07/17 06:51:49;;;;;;;2.60;2.10;;;21.10;79.50;;;;;;6155109;23;20875;-82
2023/07/17 06:57:48;;;;;;;3.97;2.50;;;20.90;80.10;;;;;;6154378;23;20402;-81
2023/07/17 07:03:53;;;;;;;2.93;2.10;;;21.10;78.20;;;;;;6178903;23;20413;-84
2023/07/17 07:06:31;;;;;;;3.20;1.93;;;20.90;78.90;;;;;;6152895;23;20576;-83
2023/07/17 07:09:21;;;;;;;3.57;2.40;;;21.10;78.70;;;;;;6154711;23;20430;-84
2023/07/17 07:12:35;;;;;;;3.73;2.73;;;21.40;76.90;;;;;;6154254;23;20429;-85
2023/07/17 07:15:54;;;;;;;3.63;2.00;;;21.20;77.30;;;;;;6153801;23;20416;-82
2023/07/17 07:19:10;;;;;;;2.60;2.40;;;21.10;77.00;;;;;;6143208;23;20426;-84
2023/07/17 07:25:40;;;;;;;;;;;;;;;;;;;;;
2023/07/17 07:32:41;;;;;;;3.63;2.50;;;21.40;76.20;;;;;;6175225;23;20503;-83
2023/07/17 07:40:14;;;;;;;4.20;2.93;;;22.10;70.60;;;;;;6180602;22;20540;-83
2023/07/17 07:43:24;;;;;;;3.97;2.80;;;22.00;67.80;;;;;;6183510;23;20428;-84
2023/07/17 07:52:55;;;;;;;3.80;2.60;;;22.30;66.90;;;;;;6234771;22;20463;-84
2023/07/17 07:59:59;;;;;;;4.87;2.80;;;22.10;66.70;;;;;;6185592;23;20542;-83
2023/07/17 08:06:22;;;;;;;3.60;2.30;;;22.50;65.30;;;;;;6219498;22;20466;-83
2023/07/17 08:18:05;;;;;;;3.43;2.60;;;22.90;62.20;;;;;;6258262;22;20482;-83
2023/07/17 08:21:19;;;;;;;2.80;2.53;;;23.00;62.00;;;;;;6221605;23;20399;-82
2023/07/17 08:24:22;;;;;;;4.23;2.50;;;23.10;62.00;;;;;;6223176;23;20396;-84
2023/07/17 08:27:11;;;;;;;3.70;2.30;;;23.40;61.20;;;;;;6233338;23;20440;-84
2023/07/17 08:30:25;;;;;;;10.40;3.90;;;23.60;60.70;;;;;;6220348;23;20474;-83
2023/07/17 08:33:51;;;;;;;2.23;2.03;;;23.90;59.10;;;;;;6211874;23;20643;-82
2023/07/17 08:37:46;;;;;;;3.17;2.70;;;25.50;56.60;;;;;;6212601;23;20412;-82
2023/07/17 08:45:15;;;;;;;3.17;2.27;;;24.90;56.60;;;;;;6108172;23;20368;-84
2023/07/17 08:48:23;;;;;;;3.27;2.97;;;24.60;56.50;;;;;;6084081;23;20551;-83
2023/07/17 08:58:57;;;;;;;3.97;2.77;;;27.60;49.10;;;;;;6032012;23;20448;-84
2023/07/17 09:02:49;;;;;;;3.50;2.57;;;28.30;46.80;;;;;;6053384;23;20423;-84
2023/07/17 09:11:44;;;;;;;5.57;3.37;;;28.50;45.70;;;;;;6151469;23;20430;-84
2023/07/17 09:15:27;;;;;;;3.27;2.37;;;29.40;44.60;;;;;;6130732;23;20437;-85
2023/07/17 09:45:17;;;;;;;;;;;;;;;;;;;;;
2023/07/17 09:48:43;;;;;;;2.93;2.50;;;31.80;38.80;;;;;;6238280;22;20446;-84
2023/07/17 10:00:21;;;;;;;3.73;2.77;;;29.10;41.60;;;;;;6199344;22;20537;-81
2023/07/17 10:11:45;;;;;;;;;;;;;;;;;;;;;
2023/07/17 10:15:15;;;;;;;3.83;2.73;;;29.60;41.20;;;;;;6217551;23;20924;-85
2023/07/17 10:21:57;;;;;;;3.83;2.80;;;30.90;38.90;;;;;;6241561;22;20466;-82
2023/07/17 10:33:03;;;;;;;3.30;2.67;;;27.70;44.30;;;;;;6257255;22;20423;-84
2023/07/17 10:49:15;;;;;;;3.97;2.60;;;29.40;41.40;;;;;;6245133;22;20467;-84
2023/07/17 10:51:47;;;;;;;5.50;3.17;;;29.00;41.90;;;;;;6242616;23;20408;-83
2023/07/17 10:54:15;;;;;;;3.27;2.97;;;28.30;43.10;;;;;;6222360;23;20418;-84
2023/07/17 10:56:53;;;;;;;3.97;2.97;;;28.00;44.10;;;;;;6218453;23;20412;-82
2023/07/17 10:59:21;;;;;;;4.70;2.50;;;28.40;43.40;;;;;;6220840;23;20435;-83
2023/07/17 11:01:48;;;;;;;3.00;2.70;;;28.60;42.90;;;;;;6255101;23;20735;-84
2023/07/17 11:04:18;;;;;;;2.60;2.23;;;28.80;42.10;;;;;;6253272;23;20419;-84
2023/07/17 11:06:46;;;;;;;3.27;2.07;;;28.90;41.60;;;;;;6257494;22;20481;-83
2023/07/17 11:09:18;;;;;;;3.53;2.43;;;29.00;41.40;;;;;;6263060;22;20514;-84
2023/07/17 11:11:46;;;;;;;3.60;2.50;;;28.70;40.80;;;;;;6230115;23;20384;-83
2023/07/17 11:14:13;;;;;;;3.33;2.07;;;28.00;41.90;;;;;;6245461;23;20400;-83
2023/07/17 11:16:42;;;;;;;2.83;2.50;;;27.50;42.50;;;;;;6244801;23;20475;-83
2023/07/17 11:19:12;;;;;;;4.13;3.33;;;27.20;42.90;;;;;;6213958;23;20459;-83
2023/07/17 11:21:41;;;;;;;2.87;2.57;;;27.20;43.60;;;;;;6214353;23;20438;-84
2023/07/17 11:24:08;;;;;;;4.93;2.97;;;27.40;43.50;;;;;;6242607;23;20567;-83
2023/07/17 11:26:38;;;;;;;3.93;2.10;;;27.60;43.10;;;;;;6214659;23;20455;-84
2023/07/17 11:29:06;;;;;;;2.87;2.40;;;27.70;42.70;;;;;;6213757;23;20521;-83
2023/07/17 11:31:34;;;;;;;3.83;2.67;;;27.90;42.80;;;;;;6239993;23;20419;-84
2023/07/17 11:34:05;;;;;;;3.37;2.47;;;28.00;43.00;;;;;;6214750;23;21153;-83
2023/07/17 11:36:44;;;;;;;2.80;2.60;;;27.70;43.20;;;;;;6240889;23;20808;-83
2023/07/17 11:39:21;;;;;;;2.60;2.30;;;27.40;43.50;;;;;;6239922;22;20428;-84
2023/07/17 11:41:52;;;;;;;4.97;2.03;;;27.40;42.80;;;;;;6211430;23;20407;-81
2023/07/17 11:44:25;;;;;;;2.30;2.10;;;27.40;42.60;;;;;;6240195;23;20522;-82
2023/07/17 11:47:00;;;;;;;5.27;2.60;;;27.40;42.70;;;;;;6239916;23;20507;-84
2023/07/17 11:49:28;;;;;;;3.57;2.43;;;27.40;42.90;;;;;;6239010;22;20424;-83
2023/07/17 11:51:57;;;;;;;4.60;2.37;;;27.40;43.10;;;;;;6239650;23;20409;-83
2023/07/17 11:57:38;;;;;;;3.20;2.00;;;27.80;41.90;;;;;;6219548;23;20424;-87
2023/07/17 12:00:11;;;;;;;2.43;2.23;;;28.60;40.10;;;;;;6238375;22;20941;-83
2023/07/17 12:02:40;;;;;;;2.10;1.90;;;28.80;39.60;;;;;;6213620;23;20785;-82
2023/07/17 12:05:11;;;;;;;2.70;2.20;;;29.10;38.70;;;;;;6213390;23;20459;-84
2023/07/17 12:07:40;;;;;;;3.73;2.40;;;28.70;38.90;;;;;;6225208;23;20450;-83
2023/07/17 12:10:08;;;;;;;5.80;3.10;;;28.60;40.30;;;;;;6210174;22;20435;-83
2023/07/17 12:12:39;;;;;;;2.87;2.57;;;28.50;41.00;;;;;;6212304;23;21326;-79
2023/07/17 12:15:09;;;;;;;4.03;2.23;;;28.40;41.40;;;;;;6214311;23;20404;-82
2023/07/17 12:17:36;;;;;;;2.93;2.63;;;28.60;41.50;;;;;;6212717;23;20462;-83
2023/07/17 12:20:04;;;;;;;2.60;2.40;;;29.00;40.40;;;;;;6213026;23;20807;-82
2023/07/17 12:22:31;;;;;;;3.30;2.80;;;28.90;41.20;;;;;;6241717;23;20860;-83
2023/07/17 12:25:00;;;;;;;3.20;2.63;;;28.70;42.00;;;;;;6242436;23;20893;-82
2023/07/17 12:27:27;;;;;;;7.47;2.80;;;28.60;42.60;;;;;;6242741;23;20447;-83
2023/07/17 12:29:55;;;;;;;3.57;2.83;;;28.70;42.60;;;;;;6241213;22;20420;-82
2023/07/17 12:32:24;;;;;;;3.40;3.10;;;28.50;42.70;;;;;;6245905;23;20737;-82
2023/07/17 12:34:51;;;;;;;5.60;4.20;;;28.30;43.30;;;;;;6244520;23;20473;-82
2023/07/17 12:37:18;;;;;;;5.13;3.47;;;28.30;43.20;;;;;;6234291;23;20396;-84
2023/07/17 12:39:45;;;;;;;5.77;2.97;;;28.30;43.30;;;;;;6261642;22;20486;-83
2023/07/17 12:42:11;;;;;;;3.43;2.77;;;28.20;43.60;;;;;;6261186;22;20416;-84
2023/07/17 12:44:38;;;;;;;5.17;3.50;;;28.90;42.70;;;;;;6261456;22;20392;-84
2023/07/17 12:47:05;;;;;;;3.10;2.60;;;28.70;42.80;;;;;;6231267;23;20508;-83
2023/07/17 12:49:32;;;;;;;4.90;2.70;;;28.40;42.60;;;;;;6253163;22;20442;-84
2023/07/17 12:52:00;;;;;;;4.40;3.17;;;28.50;42.50;;;;;;6207768;23;20496;-82
2023/07/17 12:54:29;;;;;;;2.70;2.33;;;29.10;42.10;;;;;;6235904;23;20446;-83
2023/07/17 12:56:56;;;;;;;4.03;3.00;;;29.10;41.60;;;;;;6243048;23;20477;-83
2023/07/17 12:59:23;;;;;;;6.53;3.10;;;28.60;41.40;;;;;;6251128;22;20476;-82
2023/07/17 13:01:51;;;;;;;4.23;3.00;;;28.30;42.90;;;;;;6226911;23;20408;-83
2023/07/17 13:04:19;;;;;;;4.07;2.77;;;28.20;43.80;;;;;;6229587;23;20546;-83
2023/07/17 13:06:45;;;;;;;5.00;3.47;;;28.20;44.40;;;;;;6256490;23;20420;-81
2023/07/17 13:09:12;;;;;;;3.97;3.03;;;28.30;44.40;;;;;;6255373;22;20462;-84
2023/07/17 13:11:40;;;;;;;4.00;2.87;;;28.20;43.50;;;;;;6229945;23;20435;-81
2023/07/17 13:14:08;;;;;;;3.83;2.33;;;27.90;43.40;;;;;;6217345;23;20439;-82
2023/07/17 13:16:35;;;;;;;2.60;2.37;;;27.90;43.80;;;;;;6214852;23;20392;-83
2023/07/17 13:19:02;;;;;;;3.80;2.43;;;28.10;43.40;;;;;;6238917;22;20434;-81
2023/07/17 13:21:29;;;;;;;4.07;2.90;;;28.30;43.10;;;;;;6212588;23;20442;-84
2023/07/17 13:24:00;;;;;;;4.87;2.87;;;28.40;43.20;;;;;;6211615;23;20419;-82
2023/07/17 13:26:30;;;;;;;2.70;2.43;;;28.60;42.80;;;;;;6240457;23;20483;-83
2023/07/17 13:28:57;;;;;;;4.63;3.10;;;28.80;42.30;;;;;;6211129;23;20454;-83
2023/07/17 13:31:24;;;;;;;3.47;2.60;;;28.70;41.80;;;;;;6220718;23;20403;-84
2023/07/17 13:33:51;;;;;;;3.87;2.83;;;28.70;42.10;;;;;;6241802;23;20451;-83
2023/07/17 13:39:16;;;;;;;3.23;2.83;;;29.00;41.60;;;;;;6240067;22;20428;-83
2023/07/17 13:41:48;;;;;;;4.43;2.37;;;29.30;41.60;;;;;;6238353;23;20447;-84
2023/07/17 13:44:17;;;;;;;2.97;1.90;;;29.10;40.40;;;;;;6213409;23;20780;-84
2023/07/17 13:46:47;;;;;;;2.40;2.20;;;28.80;40.10;;;;;;6240349;23;20407;-85
2023/07/17 13:49:15;;;;;;;4.53;2.93;;;29.10;40.00;;;;;;6198628;23;20507;-84
2023/07/17 13:51:44;;;;;;;6.73;2.93;;;28.80;41.30;;;;;;6223495;23;20408;-82
2023/07/17 13:54:14;;;;;;;3.37;2.90;;;28.50;42.80;;;;;;6221826;23;20528;-81
2023/07/17 13:56:46;;;;;;;4.00;2.63;;;28.30;43.40;;;;;;6244033;23;20420;-84
2023/07/17 13:59:15;;;;;;;2.30;2.10;;;28.10;43.50;;;;;;6218280;23;20430;-83
2023/07/17 14:01:42;;;;;;;4.00;2.70;;;28.20;43.50;;;;;;6255908;23;20388;-83
2023/07/17 14:04:09;;;;;;;4.17;2.37;;;28.20;42.80;;;;;;6235778;22;20419;-84
2023/07/17 14:06:36;;;;;;;3.70;2.70;;;28.20;42.70;;;;;;6262580;22;20429;-83
2023/07/17 14:09:03;;;;;;;3.60;2.67;;;28.20;42.50;;;;;;6225701;23;21319;-84
2023/07/17 14:11:30;;;;;;;3.30;2.50;;;28.10;42.20;;;;;;6252366;23;20400;-83
2023/07/17 14:14:00;;;;;;;4.00;2.60;;;27.80;42.60;;;;;;6224016;23;20397;-84
2023/07/17 14:16:27;;;;;;;3.40;2.80;;;27.70;43.30;;;;;;6245003;23;20392;-85
2023/07/17 14:18:54;;;;;;;2.80;2.20;;;27.70;43.60;;;;;;6243435;22;20489;-83
2023/07/17 14:21:21;;;;;;;3.93;2.57;;;27.70;43.70;;;;;;6246686;23;20408;-82
2023/07/17 14:23:49;;;;;;;3.87;2.37;;;28.00;43.80;;;;;;6214049;23;21365;-83
2023/07/17 14:26:16;;;;;;;2.63;2.20;;;28.00;43.00;;;;;;6212854;23;20404;-83
2023/07/17 14:28:43;;;;;;;5.57;2.50;;;27.90;43.10;;;;;;6214362;23;20516;-82
2023/07/17 14:31:10;;;;;;;2.70;2.00;;;27.70;43.20;;;;;;6218400;23;20488;-83
2023/07/17 14:33:37;;;;;;;3.00;2.30;;;27.60;43.60;;;;;;6233155;23;20397;-83
2023/07/17 14:36:04;;;;;;;2.50;2.30;;;27.30;43.50;;;;;;6232265;23;20403;-84
2023/07/17 14:38:35;;;;;;;3.40;2.77;;;27.20;44.00;;;;;;6219674;23;20950;-83
2023/07/17 14:41:04;;;;;;;3.60;2.70;;;27.20;44.30;;;;;;6241478;23;20404;-83
2023/07/17 14:43:32;;;;;;;2.73;2.43;;;27.30;44.40;;;;;;6241889;23;20412;-83
2023/07/17 14:45:59;;;;;;;3.77;2.70;;;27.20;44.30;;;;;;6212325;23;20480;-84
2023/07/17 14:48:26;;;;;;;3.93;2.17;;;27.10;44.90;;;;;;6213003;23;20467;-85
2023/07/17 14:50:53;;;;;;;3.30;1.90;;;27.00;45.30;;;;;;6239661;23;20502;-83
2023/07/17 14:53:20;;;;;;;2.63;2.27;;;27.00;45.50;;;;;;6240129;23;20419;-84
2023/07/17 14:55:48;;;;;;;3.33;2.70;;;27.00;45.60;;;;;;6249176;23;20399;-83
2023/07/17 14:58:15;;;;;;;3.73;2.43;;;27.00;45.60;;;;;;6214697;22;20451;-83
2023/07/17 15:00:43;;;;;;;3.37;2.50;;;27.10;45.70;;;;;;6215512;23;20480;-83
2023/07/17 15:03:09;;;;;;;3.40;2.60;;;27.10;45.80;;;;;;6239898;23;20503;-84
2023/07/17 15:05:37;;;;;;;3.60;2.00;;;27.00;45.50;;;;;;6215296;23;20768;-82
2023/07/17 15:08:04;;;;;;;3.87;2.70;;;26.90;45.50;;;;;;6217209;22;20507;-84
2023/07/17 15:10:31;;;;;;;4.87;2.60;;;26.70;45.60;;;;;;6215049;23;20424;-83
2023/07/17 15:12:58;;;;;;;2.60;2.03;;;26.40;48.40;;;;;;6241369;23;20417;-83
2023/07/17 15:15:25;;;;;;;3.10;2.60;;;26.40;49.90;;;;;;6243362;23;20409;-83
2023/07/17 15:17:52;;;;;;;3.33;2.50;;;26.30;51.20;;;;;;6181623;23;20416;-82
2023/07/17 15:20:19;;;;;;;3.20;2.60;;;26.10;51.10;;;;;;6218645;23;20404;-84
2023/07/17 15:22:46;;;;;;;2.53;2.33;;;26.00;50.60;;;;;;6214760;23;20917;-82
2023/07/17 15:25:13;;;;;;;3.83;2.20;;;26.10;50.20;;;;;;6212000;23;20412;-83
2023/07/17 15:27:41;;;;;;;3.23;2.90;;;26.10;49.80;;;;;;6214176;23;20412;-83
2023/07/17 15:30:08;;;;;;;4.77;2.20;;;26.10;49.60;;;;;;6211850;23;20503;-83
2023/07/17 15:32:43;;;;;;;3.33;2.30;;;26.10;49.50;;;;;;6241390;23;20431;-82
2023/07/17 15:35:12;;;;;;;2.67;2.37;;;26.00;49.30;;;;;;6211207;23;20486;-84
2023/07/17 15:37:39;;;;;;;2.53;2.33;;;26.00;49.40;;;;;;6214206;23;20408;-81
2023/07/17 15:40:07;;;;;;;5.03;2.57;;;26.00;48.90;;;;;;6238908;22;21003;-82
2023/07/17 15:42:36;;;;;;;2.97;1.87;;;26.00;49.00;;;;;;6240781;23;20409;-84
2023/07/17 15:45:05;;;;;;;4.90;2.70;;;26.10;48.70;;;;;;6217305;23;20396;-83
2023/07/17 15:47:33;;;;;;;3.80;2.03;;;26.20;48.40;;;;;;6217452;23;20458;-84
2023/07/17 15:50:00;;;;;;;3.67;1.93;;;26.20;47.60;;;;;;6211185;23;20459;-84
2023/07/17 15:52:28;;;;;;;3.10;1.53;;;26.30;47.50;;;;;;6243525;23;20592;-83
2023/07/17 15:54:55;;;;;;;2.30;1.90;;;26.30;47.50;;;;;;6212383;23;20412;-83
2023/07/17 15:57:22;;;;;;;1.90;1.80;;;26.50;47.10;;;;;;6213106;23;20404;-84
2023/07/17 15:59:48;;;;;;;1.57;1.47;;;26.60;47.00;;;;;;6212014;23;20439;-83
2023/07/17 16:02:16;;;;;;;2.00;1.60;;;26.50;46.60;;;;;;6213698;23;20442;-83
2023/07/17 16:04:43;;;;;;;3.00;1.80;;;26.50;46.70;;;;;;6211355;23;20430;-83
2023/07/17 16:07:10;;;;;;;1.77;1.37;;;26.30;46.40;;;;;;6239961;23;20416;-82
2023/07/17 16:09:37;;;;;;;2.30;2.00;;;26.10;47.00;;;;;;6238595;22;20464;-84
2023/07/17 16:12:08;;;;;;;2.80;1.80;;;26.00;47.50;;;;;;6202326;22;20702;-83
2023/07/17 16:14:42;;;;;;;2.17;1.80;;;26.20;47.90;;;;;;6237548;23;20832;-84
2023/07/17 16:17:12;;;;;;;2.17;1.87;;;26.10;48.00;;;;;;6209504;23;20483;-83
2023/07/17 16:19:44;;;;;;;2.30;2.07;;;26.10;48.10;;;;;;6232622;22;20428;-83
2023/07/17 16:22:14;;;;;;;3.30;2.10;;;26.00;48.50;;;;;;6235151;23;20479;-83
2023/07/17 16:24:47;;;;;;;3.10;2.53;;;25.90;48.80;;;;;;6234956;23;21194;-83
2023/07/17 16:27:16;;;;;;;4.20;1.70;;;25.90;48.80;;;;;;6235736;23;20455;-81
2023/07/17 16:29:46;;;;;;;3.90;1.77;;;25.80;49.20;;;;;;6207218;23;20517;-84
2023/07/17 16:32:13;;;;;;;3.40;2.13;;;25.80;49.20;;;;;;6208138;23;21316;-84
2023/07/17 16:34:43;;;;;;;2.80;2.30;;;25.90;49.20;;;;;;6237067;23;20409;-83
2023/07/17 16:37:12;;;;;;;2.13;1.93;;;26.00;48.90;;;;;;6211468;23;20496;-81
2023/07/17 16:39:41;;;;;;;3.20;1.73;;;25.90;48.90;;;;;;6209930;23;20536;-83
2023/07/17 16:42:12;;;;;;;3.33;1.53;;;25.80;49.00;;;;;;6211799;23;20423;-82
2023/07/17 16:44:40;;;;;;;4.60;1.80;;;25.70;49.40;;;;;;6238076;23;20422;-83
2023/07/17 16:47:08;;;;;;;2.30;1.90;;;25.60;49.80;;;;;;6239008;23;20874;-82
2023/07/17 16:49:38;;;;;;;2.17;1.60;;;25.60;49.80;;;;;;6210479;23;20456;-83
2023/07/17 16:52:06;;;;;;;2.03;1.50;;;25.70;50.00;;;;;;6212219;23;20408;-82
2023/07/17 16:54:34;;;;;;;5.40;3.40;;;25.60;49.60;;;;;;6240557;23;20412;-83
2023/07/17 16:57:09;;;;;;;1.80;1.70;;;25.60;50.20;;;;;;6235134;23;20419;-82
2023/07/17 16:59:41;;;;;;;2.90;2.23;;;25.60;51.80;;;;;;6235607;23;20444;-82
2023/07/17 17:02:11;;;;;;;2.60;1.50;;;25.30;53.10;;;;;;6222011;23;20944;-82
2023/07/17 17:04:41;;;;;;;1.17;1.07;;;25.00;52.90;;;;;;6242088;23;20411;-83
2023/07/17 17:07:10;;;;;;;2.10;1.20;;;24.70;52.90;;;;;;6213537;23;20926;-83
2023/07/17 17:09:38;;;;;;;1.87;1.70;;;24.60;53.10;;;;;;6238745;22;20480;-83
2023/07/17 17:12:06;;;;;;;1.83;1.70;;;24.50;53.30;;;;;;6212161;23;21003;-81
2023/07/17 17:14:35;;;;;;;1.13;0.93;;;24.40;54.20;;;;;;6237014;23;20476;-83
2023/07/17 17:17:04;;;;;;;1.83;1.20;;;24.20;54.80;;;;;;6240840;23;20396;-83
2023/07/17 17:19:38;;;;;;;2.43;1.63;;;24.00;55.60;;;;;;6239743;22;20479;-84
2023/07/17 17:22:08;;;;;;;1.93;1.27;;;24.00;58.00;;;;;;6212676;23;20392;-83
2023/07/17 17:24:44;;;;;;;1.30;1.20;;;23.80;59.60;;;;;;6235995;23;20463;-84
2023/07/17 17:27:14;;;;;;;5.20;4.70;;;23.70;59.00;;;;;;6246006;23;20764;-83
2023/07/17 17:29:41;;;;;;;1.53;1.43;;;23.50;59.30;;;;;;6213613;23;20483;-82
2023/07/17 17:32:08;;;;;;;6.07;1.83;;;23.40;59.00;;;;;;6239989;23;20418;-82
2023/07/17 17:34:39;;;;;;;4.60;1.60;;;23.60;58.70;;;;;;6241055;23;20436;-84
2023/07/17 17:37:08;;;;;;;1.73;1.47;;;23.60;58.80;;;;;;6243954;23;20908;-84
2023/07/17 17:39:38;;;;;;;1.70;1.60;;;23.40;58.40;;;;;;6216428;23;20447;-83
2023/07/17 17:42:06;;;;;;;1.67;1.57;;;23.40;59.10;;;;;;6212512;23;20416;-84
2023/07/17 17:44:33;;;;;;;2.10;1.57;;;23.30;58.70;;;;;;6220971;23;20439;-84
2023/07/17 17:47:00;;;;;;;1.37;1.17;;;23.10;58.90;;;;;;6231000;23;20415;-84
2023/07/17 17:49:28;;;;;;;3.50;1.80;;;23.10;59.20;;;;;;6228101;23;20459;-86
2023/07/17 17:51:55;;;;;;;3.07;2.20;;;23.10;59.10;;;;;;6226167;23;20439;-83
2023/07/17 17:54:22;;;;;;;2.33;1.80;;;23.10;58.90;;;;;;6251859;23;20408;-84
2023/07/17 17:57:14;;;;;;;2.23;1.67;;;23.30;58.70;;;;;;6107067;23;20462;-84
2023/07/17 18:00:06;;;;;;;1.90;1.73;;;23.10;58.60;;;;;;6129047;23;20427;-83
2023/07/17 18:03:03;;;;;;;1.93;1.47;;;23.30;58.30;;;;;;6105130;23;20415;-85
2023/07/17 18:05:54;;;;;;;1.60;1.37;;;23.40;58.50;;;;;;6130054;23;20415;-84
2023/07/17 18:08:45;;;;;;;1.80;1.43;;;23.40;58.30;;;;;;6108916;23;20772;-83
2023/07/17 18:11:43;;;;;;;2.20;2.00;;;23.40;58.40;;;;;;6137623;23;20408;-85